Aviation Digital Data Service (ADDS)

Output produced by METARs form (0731 UTC 01 November 2014)
found at http://aviationweather.gov/adds/metars/
 
METAR text: KSPB 010722Z AUTO 00000KT 1/4SM FG VV002 07/07 A2986 RMK AO2 T00720072
Conditions at: KSPB (SCAPPOOSE , OR, US) observed 0722 UTC 01 November 2014
Temperature: 7.2°C (45°F)
Dewpoint: 7.2°C (45°F) [RH = 100%]
Pressure (altimeter): 29.86 inches Hg (1011.3 mb)
Winds: calm
Visibility: 0.25 miles (0.40 km)
Ceiling: indefinite ceiling with vertical visibility of 200 feet AGL
Clouds: obscured sky
Weather: FG  (fog)

METAR text: KSPB 010711Z AUTO 00000KT 1/2SM FG VV002 07/07 A2986 RMK AO2 T00720067
Conditions at: KSPB (SCAPPOOSE , OR, US) observed 0711 UTC 01 November 2014
Temperature: 7.2°C (45°F)
Dewpoint: 6.7°C (44°F) [RH = 97%]
Pressure (altimeter): 29.86 inches Hg (1011.3 mb)
Winds: calm
Visibility: 0.50 miles (0.80 km)
Ceiling: indefinite ceiling with vertical visibility of 200 feet AGL
Clouds: obscured sky
Weather: FG  (fog)

METAR text: KSPB 010653Z AUTO 00000KT 1/4SM FG VV002 07/06 A2986 RMK AO2 SLP109 T00670061
Conditions at: KSPB (SCAPPOOSE , OR, US) observed 0653 UTC 01 November 2014
Temperature: 6.7°C (44°F)
Dewpoint: 6.1°C (43°F) [RH = 96%]
Pressure (altimeter): 29.86 inches Hg (1011.3 mb)
[Sea-level pressure: 1010.9 mb]
Winds: calm
Visibility: 0.25 miles (0.40 km)
Ceiling: indefinite ceiling with vertical visibility of 200 feet AGL
Clouds: obscured sky
Weather: FG  (fog)

METAR text: KSPB 010648Z AUTO 00000KT 1/4SM FG VV002 06/06 A2986 RMK AO2
Conditions at: KSPB (SCAPPOOSE , OR, US) observed 0648 UTC 01 November 2014
Temperature: 6.0°C (43°F)
Dewpoint: 6.0°C (43°F) [RH = 100%]
Pressure (altimeter): 29.86 inches Hg (1011.3 mb)
Winds: calm
Visibility: 0.25 miles (0.40 km)
Ceiling: indefinite ceiling with vertical visibility of 200 feet AGL
Clouds: obscured sky
Weather: FG  (fog)

METAR text: KSPB 010629Z AUTO 00000KT 3/4SM BR VV001 06/05 A2986 RMK AO2 T00560050
Conditions at: KSPB (SCAPPOOSE , OR, US) observed 0629 UTC 01 November 2014
Temperature: 5.6°C (42°F)
Dewpoint: 5.0°C (41°F) [RH = 96%]
Pressure (altimeter): 29.86 inches Hg (1011.3 mb)
Winds: calm
Visibility: 0.75 miles (1.21 km)
Ceiling: indefinite ceiling with vertical visibility of 100 feet AGL
Clouds: obscured sky
Weather: BR  (mist)

METAR text: KSPB 010624Z AUTO 00000KT 1 3/4SM BR FEW001 07/06 A2986 RMK AO2 T00670061
Conditions at: KSPB (SCAPPOOSE , OR, US) observed 0624 UTC 01 November 2014
Temperature: 6.7°C (44°F)
Dewpoint: 6.1°C (43°F) [RH = 96%]
Pressure (altimeter): 29.86 inches Hg (1011.3 mb)
Winds: calm
Visibility: 1.75 miles (2.82 km)
Ceiling: at least 12,000 feet AGL
Clouds: few clouds at 100 feet AGL
Weather: BR  (mist)

METAR text: KSPB 010614Z AUTO 00000KT 3SM BR FEW001 07/07 A2985 RMK AO2 T00720067
Conditions at: KSPB (SCAPPOOSE , OR, US) observed 0614 UTC 01 November 2014
Temperature: 7.2°C (45°F)
Dewpoint: 6.7°C (44°F) [RH = 97%]
Pressure (altimeter): 29.85 inches Hg (1010.9 mb)
Winds: calm
Visibility: 3 miles (5 km)
Ceiling: at least 12,000 feet AGL
Clouds: few clouds at 100 feet AGL
Weather: BR  (mist)

METAR text: KSPB 010611Z AUTO 00000KT 1 1/4SM BR FEW001 07/07 A2985 RMK AO2 T00720067
Conditions at: KSPB (SCAPPOOSE , OR, US) observed 0611 UTC 01 November 2014
Temperature: 7.2°C (45°F)
Dewpoint: 6.7°C (44°F) [RH = 97%]
Pressure (altimeter): 29.85 inches Hg (1010.9 mb)
Winds: calm
Visibility: 1.25 miles (2.01 km)
Ceiling: at least 12,000 feet AGL
Clouds: few clouds at 100 feet AGL
Weather: BR  (mist)

METAR text: KSPB 010553Z AUTO 24003KT 1/2SM FG VV001 06/06 A2985 RMK AO2 SLP109 T00610056 10122 20061 56002
Conditions at: KSPB (SCAPPOOSE , OR, US) observed 0553 UTC 01 November 2014
Temperature: 6.1°C (43°F)
Dewpoint: 5.6°C (42°F) [RH = 97%]
Pressure (altimeter): 29.85 inches Hg (1010.9 mb)
[Sea-level pressure: 1010.9 mb]
Winds: from the WSW (240 degrees) at 3 MPH (3 knots; 1.6 m/s)
Visibility: 0.50 miles (0.80 km)
Ceiling: indefinite ceiling with vertical visibility of 100 feet AGL
Clouds: obscured sky
Weather: FG  (fog)